createdAt,value
2017-06-14T00:00:20.913Z,15.90
2017-06-14T00:02:48.572Z,15.80
2017-06-14T00:05:30.523Z,15.70
2017-06-14T00:08:13.197Z,15.70
2017-06-14T00:10:55.380Z,15.60
2017-06-14T00:13:37.632Z,15.60
2017-06-14T00:16:19.894Z,15.50
2017-06-14T00:19:03.041Z,15.50
2017-06-14T00:21:32.624Z,15.40
2017-06-14T00:24:14.936Z,15.40
2017-06-14T00:26:42.697Z,15.40
2017-06-14T00:29:11.054Z,15.40
2017-06-14T00:31:38.840Z,15.40
2017-06-14T00:34:06.707Z,15.40
2017-06-14T00:36:34.828Z,15.40
2017-06-14T00:39:02.541Z,15.30
2017-06-14T00:41:30.691Z,15.30
2017-06-14T00:43:59.285Z,15.30
2017-06-14T00:46:27.144Z,15.30
2017-06-14T00:48:54.936Z,15.30
2017-06-14T00:51:22.795Z,15.20
2017-06-14T00:53:50.541Z,15.20
2017-06-14T00:56:19.158Z,15.10
2017-06-14T00:58:47.094Z,15.10
2017-06-14T01:01:14.959Z,15.10
2017-06-14T01:03:43.440Z,15.10
2017-06-14T01:06:11.229Z,15.10
2017-06-14T01:08:39.096Z,15.10
2017-06-14T01:11:06.960Z,15.00
2017-06-14T01:13:34.906Z,15.00
2017-06-14T01:16:02.695Z,15.10
2017-06-14T01:18:30.354Z,15.10
2017-06-14T01:20:58.563Z,15.20
2017-06-14T01:23:26.561Z,15.20
2017-06-14T01:25:54.576Z,15.20
2017-06-14T01:28:22.544Z,15.30
2017-06-14T01:30:52.459Z,15.40
2017-06-14T01:33:21.031Z,15.40
2017-06-14T01:35:48.779Z,15.40
2017-06-14T01:38:16.424Z,15.50
2017-06-14T01:40:44.308Z,15.50
2017-06-14T01:43:12.174Z,15.50
2017-06-14T01:45:40.450Z,15.50
2017-06-14T01:48:08.569Z,15.50
2017-06-14T01:50:36.389Z,15.50
2017-06-14T01:53:05.005Z,15.50
2017-06-14T01:55:32.737Z,15.60
2017-06-14T01:58:00.619Z,15.60
2017-06-14T02:00:29.462Z,15.60
2017-06-14T02:02:57.480Z,15.60
2017-06-14T02:05:25.144Z,15.70
2017-06-14T02:07:52.844Z,15.70
2017-06-14T02:10:20.673Z,15.60
2017-06-14T02:12:48.540Z,15.60
2017-06-14T02:15:16.284Z,15.60
2017-06-14T02:17:44.766Z,15.60
2017-06-14T02:20:12.632Z,15.60
2017-06-14T02:22:41.143Z,15.50
2017-06-14T02:25:09.923Z,15.20
2017-06-14T02:27:37.870Z,15.10
2017-06-14T02:30:06.147Z,15.10
2017-06-14T02:32:34.014Z,15.20
2017-06-14T02:35:04.596Z,15.30
2017-06-14T02:37:32.668Z,15.30
2017-06-14T02:40:15.066Z,15.40
2017-06-14T02:42:57.269Z,15.50
2017-06-14T02:45:39.636Z,15.40
2017-06-14T02:48:21.919Z,15.40
2017-06-14T02:51:04.277Z,15.40
2017-06-14T02:53:46.537Z,15.30
2017-06-14T02:56:29.270Z,15.00
2017-06-14T02:59:11.652Z,14.70
2017-06-14T03:01:40.005Z,14.50
2017-06-14T03:04:22.311Z,14.30
2017-06-14T03:07:04.961Z,14.30
2017-06-14T03:09:47.077Z,14.20
2017-06-14T03:12:20.071Z,14.00
2017-06-14T03:15:02.387Z,13.80
2017-06-14T03:17:45.023Z,13.80
2017-06-14T03:20:21.907Z,13.70
2017-06-14T03:22:49.749Z,13.70
2017-06-14T03:25:17.948Z,13.60
2017-06-14T03:27:45.845Z,13.60
2017-06-14T03:30:13.644Z,13.50
2017-06-14T03:32:41.594Z,13.60
2017-06-14T03:35:09.461Z,13.60
2017-06-14T03:37:37.247Z,13.60
2017-06-14T03:40:05.331Z,13.50
2017-06-14T03:42:33.024Z,13.50
2017-06-14T03:45:00.853Z,13.50
2017-06-14T03:47:28.938Z,13.60
2017-06-14T03:49:56.587Z,13.60
2017-06-14T03:52:24.321Z,13.60
2017-06-14T03:54:53.416Z,13.60
2017-06-14T03:57:25.175Z,13.70
2017-06-14T03:59:53.167Z,13.80
2017-06-14T04:02:22.872Z,13.90
2017-06-14T04:04:52.324Z,14.00
2017-06-14T04:07:25.736Z,14.10
2017-06-14T04:09:53.423Z,14.30
2017-06-14T04:12:21.547Z,14.40
2017-06-14T04:14:49.460Z,14.70
2017-06-14T04:17:17.941Z,15.10
2017-06-14T04:19:45.603Z,15.40
2017-06-14T04:22:13.879Z,15.60
2017-06-14T04:24:41.672Z,15.60
2017-06-14T04:27:10.657Z,15.80
2017-06-14T04:29:38.503Z,16.00
2017-06-14T04:32:07.221Z,16.20
2017-06-14T04:34:34.860Z,16.40
2017-06-14T04:37:06.625Z,16.60
2017-06-14T04:39:34.372Z,16.90
2017-06-14T04:42:02.361Z,17.00
2017-06-14T04:44:31.162Z,17.20
2017-06-14T04:46:59.593Z,17.40
2017-06-14T04:49:27.392Z,17.50
2017-06-14T04:51:55.497Z,17.70
2017-06-14T04:54:23.823Z,17.90
2017-06-14T04:56:51.942Z,18.00
2017-06-14T04:59:19.680Z,18.20
2017-06-14T05:01:47.340Z,18.30
2017-06-14T05:04:15.036Z,18.50
2017-06-14T05:06:42.953Z,18.60
2017-06-14T05:09:10.737Z,18.70
2017-06-14T05:11:38.697Z,18.80
2017-06-14T05:14:07.196Z,19.00
2017-06-14T05:16:35.033Z,18.90
2017-06-14T05:19:02.921Z,19.00
2017-06-14T05:21:30.569Z,19.10
2017-06-14T05:23:58.204Z,19.30
2017-06-14T05:26:25.908Z,19.60
2017-06-14T05:28:54.860Z,19.80
2017-06-14T05:31:22.643Z,19.60
2017-06-14T05:33:51.291Z,19.90
2017-06-14T05:36:19.972Z,19.80
2017-06-14T05:38:47.808Z,19.90
2017-06-14T05:41:15.748Z,20.10
2017-06-14T05:43:43.549Z,20.20
2017-06-14T05:46:11.380Z,20.30
2017-06-14T05:48:39.249Z,20.20
2017-06-14T05:51:07.112Z,20.20
2017-06-14T05:53:34.979Z,20.50
2017-06-14T05:56:03.577Z,20.70
2017-06-14T05:58:31.331Z,20.70
2017-06-14T06:00:59.124Z,20.50
2017-06-14T06:03:27.062Z,20.60
2017-06-14T06:05:54.866Z,20.70
2017-06-14T06:08:22.794Z,20.90
2017-06-14T06:10:50.458Z,21.20
2017-06-14T06:13:18.467Z,21.30
2017-06-14T06:15:46.308Z,21.30
2017-06-14T06:18:14.176Z,21.00
2017-06-14T06:20:41.922Z,21.10
2017-06-14T06:23:09.789Z,21.80
2017-06-14T06:25:37.656Z,22.00
2017-06-14T06:28:05.781Z,22.30
2017-06-14T06:30:34.123Z,22.30
2017-06-14T06:33:01.772Z,22.40
2017-06-14T06:35:30.351Z,22.50
2017-06-14T06:37:58.730Z,22.70
2017-06-14T06:40:26.617Z,22.60
2017-06-14T06:42:54.362Z,23.10
2017-06-14T06:45:22.195Z,22.80
2017-06-14T06:47:50.095Z,22.90
2017-06-14T06:50:17.962Z,23.20
2017-06-14T06:52:45.745Z,23.40
2017-06-14T06:55:13.838Z,23.70
2017-06-14T06:57:41.907Z,24.30
2017-06-14T07:00:10.100Z,23.90
2017-06-14T07:02:37.916Z,23.50
2017-06-14T07:05:05.691Z,23.30
2017-06-14T07:07:33.585Z,23.60
2017-06-14T07:10:01.919Z,24.20
2017-06-14T07:12:30.401Z,23.90
2017-06-14T07:14:58.185Z,24.40
2017-06-14T07:17:26.265Z,24.10
2017-06-14T07:19:53.918Z,24.50
2017-06-14T07:22:22.369Z,24.80
2017-06-14T07:24:50.045Z,25.10
2017-06-14T07:27:17.720Z,25.60
2017-06-14T07:29:45.570Z,25.80
2017-06-14T07:32:13.436Z,26.60
2017-06-14T07:34:41.508Z,26.70
2017-06-14T07:37:10.471Z,27.50
2017-06-14T07:39:38.389Z,27.70
2017-06-14T07:42:06.221Z,28.20
2017-06-14T07:44:34.616Z,28.90
2017-06-14T07:47:02.600Z,29.50
2017-06-14T07:49:30.385Z,29.50
2017-06-14T07:51:58.214Z,29.60
2017-06-14T07:54:26.285Z,30.30
2017-06-14T07:56:55.486Z,30.90
2017-06-14T07:59:23.247Z,30.80
2017-06-14T08:01:51.032Z,31.30
2017-06-14T08:04:18.713Z,32.20
2017-06-14T08:06:46.641Z,32.20
2017-06-14T08:09:14.516Z,33.00
2017-06-14T08:11:42.802Z,32.50
2017-06-14T08:14:11.387Z,34.50
2017-06-14T08:16:39.257Z,34.40
2017-06-14T08:19:06.917Z,34.40
2017-06-14T08:21:34.867Z,35.60
2017-06-14T08:24:02.647Z,35.40
2017-06-14T08:26:30.516Z,35.40
2017-06-14T08:28:58.461Z,36.20
2017-06-14T08:31:26.334Z,37.40
2017-06-14T08:33:54.117Z,37.40
2017-06-14T08:36:22.397Z,35.80
2017-06-14T08:38:50.037Z,36.40
2017-06-14T08:41:17.906Z,36.40
2017-06-14T08:43:45.684Z,35.70
2017-06-14T08:46:13.432Z,37.20
2017-06-14T08:48:41.225Z,38.50
2017-06-14T08:51:10.129Z,38.80
2017-06-14T08:53:37.852Z,38.60
2017-06-14T08:56:05.528Z,38.50
2017-06-14T08:58:33.397Z,37.80
2017-06-14T09:01:01.233Z,37.70
2017-06-14T09:03:29.215Z,38.10
2017-06-14T09:05:57.000Z,39.20
2017-06-14T09:08:25.341Z,39.00
2017-06-14T09:10:53.225Z,39.50
2017-06-14T09:13:21.097Z,40.80
2017-06-14T09:15:48.958Z,41.00
2017-06-14T09:18:17.413Z,38.20
2017-06-14T09:20:45.461Z,38.10
2017-06-14T09:23:13.150Z,39.10
2017-06-14T09:25:41.150Z,40.60
2017-06-14T09:28:09.118Z,41.60
2017-06-14T09:30:37.713Z,41.80
2017-06-14T09:33:05.372Z,41.70
2017-06-14T09:35:33.240Z,42.60
2017-06-14T09:38:01.218Z,42.10
2017-06-14T09:40:28.972Z,41.00
2017-06-14T09:42:56.724Z,39.60
2017-06-14T09:45:24.588Z,40.30
2017-06-14T09:47:52.596Z,41.00
2017-06-14T09:50:20.692Z,41.50
2017-06-14T09:52:49.310Z,41.00
2017-06-14T09:55:17.187Z,40.90
2017-06-14T09:57:45.500Z,40.20
2017-06-14T10:00:14.041Z,37.90
2017-06-14T10:02:41.824Z,38.30
2017-06-14T10:05:09.569Z,38.90
2017-06-14T10:07:37.352Z,39.10
2017-06-14T10:10:05.001Z,39.10
2017-06-14T10:12:32.880Z,39.00
2017-06-14T10:15:00.515Z,39.10
2017-06-14T10:17:29.050Z,39.50
2017-06-14T10:19:56.901Z,39.00
2017-06-14T10:22:24.756Z,39.00
2017-06-14T10:24:52.421Z,37.90
2017-06-14T10:27:20.290Z,37.60
2017-06-14T10:29:48.152Z,36.80
2017-06-14T10:32:16.390Z,35.90
2017-06-14T10:34:44.385Z,34.20
2017-06-14T10:37:12.248Z,33.20
2017-06-14T10:39:39.940Z,31.80
2017-06-14T10:42:08.595Z,30.10
2017-06-14T10:44:36.377Z,30.00
2017-06-14T10:47:04.004Z,30.00
2017-06-14T10:49:32.604Z,30.00
2017-06-14T10:52:00.390Z,29.70
2017-06-14T10:54:28.321Z,29.00
2017-06-14T10:56:56.330Z,29.20
2017-06-14T10:59:23.972Z,29.50
2017-06-14T11:01:51.938Z,29.60
2017-06-14T11:04:19.720Z,29.50
2017-06-14T11:06:47.408Z,29.30
2017-06-14T11:09:15.848Z,28.60
2017-06-14T11:11:43.711Z,28.50
2017-06-14T11:14:11.344Z,28.50
2017-06-14T11:16:39.240Z,28.60
2017-06-14T11:19:07.061Z,28.50
2017-06-14T11:21:34.756Z,28.60
2017-06-14T11:24:03.250Z,28.60
2017-06-14T11:26:30.940Z,28.40
2017-06-14T11:28:59.336Z,27.40
2017-06-14T11:31:27.370Z,27.30
2017-06-14T11:33:55.144Z,26.90
2017-06-14T11:36:23.269Z,27.00
2017-06-14T11:38:51.426Z,26.90
2017-06-14T11:41:19.770Z,27.10
2017-06-14T11:43:47.498Z,26.90
2017-06-14T11:46:15.997Z,26.30
2017-06-14T11:48:44.468Z,26.40
2017-06-14T11:51:12.259Z,26.70
2017-06-14T11:53:40.367Z,26.70
2017-06-14T11:56:08.096Z,26.60
2017-06-14T11:58:36.047Z,26.40
2017-06-14T12:01:04.352Z,26.60
2017-06-14T12:03:32.190Z,26.60
2017-06-14T12:06:00.859Z,26.70
2017-06-14T12:08:28.657Z,26.60
2017-06-14T12:10:56.321Z,26.50
2017-06-14T12:13:24.643Z,26.40
2017-06-14T12:15:53.069Z,26.30
2017-06-14T12:18:20.943Z,26.20
2017-06-14T12:20:48.690Z,26.30
2017-06-14T12:23:16.472Z,26.30
2017-06-14T12:25:44.236Z,26.30
2017-06-14T12:28:11.984Z,26.30
2017-06-14T12:30:40.332Z,26.60
2017-06-14T12:33:08.127Z,26.70
2017-06-14T12:35:35.992Z,26.70
2017-06-14T12:38:03.621Z,26.80
2017-06-14T12:40:31.441Z,26.70
2017-06-14T12:42:59.104Z,26.40
2017-06-14T12:45:26.969Z,26.30
2017-06-14T12:47:54.628Z,26.30
2017-06-14T12:50:22.496Z,26.50
2017-06-14T12:52:50.161Z,26.40
2017-06-14T12:55:18.391Z,26.40
2017-06-14T12:57:46.179Z,26.40
2017-06-14T13:00:14.661Z,26.70
2017-06-14T13:02:42.444Z,26.80
2017-06-14T13:05:10.312Z,26.40
2017-06-14T13:07:37.974Z,26.20
2017-06-14T13:10:28.754Z,26.30
2017-06-14T13:12:56.435Z,26.50
2017-06-14T13:15:24.314Z,26.40
2017-06-14T13:17:52.260Z,26.40
2017-06-14T13:20:20.037Z,26.50
2017-06-14T13:22:47.688Z,26.50
2017-06-14T13:25:15.372Z,26.70
2017-06-14T13:27:43.108Z,26.90
2017-06-14T13:30:10.974Z,27.00
2017-06-14T13:32:39.047Z,26.80
2017-06-14T13:35:06.738Z,26.70
2017-06-14T13:37:35.394Z,26.60
2017-06-14T13:40:03.261Z,26.50
2017-06-14T13:42:31.048Z,26.60
2017-06-14T13:44:58.739Z,26.60
2017-06-14T13:47:26.811Z,26.70
2017-06-14T13:49:54.645Z,26.70
2017-06-14T13:52:22.750Z,26.70
2017-06-14T13:54:50.461Z,26.30
2017-06-14T13:57:18.244Z,26.40
2017-06-14T13:59:45.904Z,26.50
2017-06-14T14:02:13.859Z,26.60
2017-06-14T14:04:41.647Z,26.60
2017-06-14T14:07:09.508Z,26.60
2017-06-14T14:09:37.148Z,26.60
2017-06-14T14:12:05.016Z,26.70
2017-06-14T14:14:33.348Z,26.80
2017-06-14T14:17:01.076Z,26.80
2017-06-14T14:19:28.741Z,26.80
2017-06-14T14:21:56.687Z,26.70
2017-06-14T14:24:24.475Z,26.90
2017-06-14T14:26:53.035Z,26.90
2017-06-14T14:29:20.890Z,26.80
2017-06-14T14:31:49.589Z,26.70
2017-06-14T14:34:17.373Z,26.70
2017-06-14T14:36:45.014Z,26.70
2017-06-14T14:39:13.393Z,26.70
2017-06-14T14:41:41.179Z,26.80
2017-06-14T14:44:09.045Z,26.90
2017-06-14T14:46:36.703Z,26.90
2017-06-14T14:49:04.576Z,27.00
2017-06-14T14:51:32.210Z,27.00
2017-06-14T14:54:00.697Z,26.90
2017-06-14T14:56:28.568Z,26.80
2017-06-14T14:58:56.460Z,26.90
2017-06-14T15:01:25.013Z,26.80
2017-06-14T15:03:53.357Z,26.80
2017-06-14T15:06:21.048Z,26.70
2017-06-14T15:08:48.837Z,26.70
2017-06-14T15:11:16.787Z,26.60
2017-06-14T15:13:44.799Z,26.70
2017-06-14T15:16:12.644Z,26.70
2017-06-14T15:18:40.416Z,26.70
2017-06-14T15:21:08.171Z,26.50
2017-06-14T15:23:35.915Z,26.40
2017-06-14T15:26:03.699Z,26.40
2017-06-14T15:28:31.916Z,26.50
2017-06-14T15:30:59.723Z,26.60
2017-06-14T15:33:28.050Z,26.60
2017-06-14T15:35:55.780Z,26.60
2017-06-14T15:38:23.515Z,26.60
2017-06-14T15:40:51.309Z,26.60
2017-06-14T15:43:19.037Z,26.60
2017-06-14T15:45:47.617Z,26.60
2017-06-14T15:48:15.606Z,26.60
2017-06-14T15:50:43.833Z,26.70
2017-06-14T15:53:11.664Z,26.70
2017-06-14T15:55:39.771Z,26.70
2017-06-14T15:58:07.687Z,26.70
2017-06-14T16:00:36.068Z,26.60
2017-06-14T16:03:04.580Z,26.60
2017-06-14T16:05:33.322Z,26.60
2017-06-14T16:08:01.019Z,26.60
2017-06-14T16:10:28.967Z,26.70
2017-06-14T16:12:56.833Z,26.60
2017-06-14T16:15:24.618Z,26.60
